Amagi Galaxy — V7VE9 — position and weather

sailwx.info

Track history (hours):
 
Tides and Currents Weather Stations Pressure Air Temp Water Temp Dewpoint Dewpoint Depression Visibility Wind Speed Wind Dir Waves Ship Positions

Amagi Galaxy

Last reported at 2016-Jan-22 20:33 UTC. Time now 2016-Feb-07 17:28 UTC.
Position N 01°17' E 104°07'.
Warning: this ship's position is 15 days out of date.

Length 152 m; draft 7.2 m.

Type: Ship. MMSI: 538004105.

Date/timePositionNaut miles runAvg speedWind from/ knotsBaromVisibWave heightAir tempDewpointWater temp
2016-Jan-22 20:33N 01°17' E 104°07'1110.3
2016-Jan-22 19:28N 01°23' E 103°58'1 0.1
2016-Jan-22 07:32N 01°24' E 103°57'9 8.9
2016-Jan-22 06:33N 01°20' E 104°05'4 4.0
2016-Jan-22 05:33N 01°17' E 104°07'6 5.7
2016-Jan-22 04:31N 01°15' E 104°02'1313.1
2016-Jan-22 03:33N 01°11' E 103°50'8113.3
2016-Jan-21 21:29N 01°42' E 102°36'1514.5
2016-Jan-21 20:29N 01°49' E 102°23'1313.7
2016-Jan-21 19:32N 01°55' E 102°11'24 7.5
2016-Jan-21 16:21N 01°39' E 101°53'  
Track history (hours):
 
Tides and Currents Weather Stations Pressure Air Temp Water Temp Dewpoint Dewpoint Depression Visibility Wind Speed Wind Dir Waves Ship Positions

Amagi Galaxy

Last reported at 2016-Jan-22 20:33 UTC. Time now 2016-Feb-07 17:28 UTC.
Position N 01°17' E 104°07'.
Warning: this ship's position is 15 days out of date.

Length 152 m; draft 7.2 m.

Type: Ship. MMSI: 538004105.

Date/timePositionNaut miles runAvg speedWind from/ knotsBaromVisibWave heightAir tempDewpointWater temp
2016-Jan-22 20:33N 01°17' E 104°07'1110.3
2016-Jan-22 19:28N 01°23' E 103°58'1 0.1
2016-Jan-22 07:32N 01°24' E 103°57'9 8.9
2016-Jan-22 06:33N 01°20' E 104°05'4 4.0
2016-Jan-22 05:33N 01°17' E 104°07'6 5.7
2016-Jan-22 04:31N 01°15' E 104°02'1313.1
2016-Jan-22 03:33N 01°11' E 103°50'8113.3
2016-Jan-21 21:29N 01°42' E 102°36'1514.5
2016-Jan-21 20:29N 01°49' E 102°23'1313.7
2016-Jan-21 19:32N 01°55' E 102°11'24 7.5
2016-Jan-21 16:21N 01°39' E 101°53'  

Dump ship's entire track history